Time;durP1;ratioP1;P1;durP2;ratioP2;P2;SDS_P1;SDS_P2;PMS_P1;PMS_P2;Temp;Humidity;BMP_temperature;BMP_pressure;BME280_temperature;BME280_humidity;BME280_pressure;Samples;Min_cycle;Max_cycle;Signal;HPM_P1;HPM_P2
2022/03/15 00:00:15;;;;;;;8.07;3.40;;;6.70;84.20;;;5.69;67.60;98461.75;4991994;28;20423;-76
2022/03/15 00:02:41;;;;;;;6.28;3.05;;;6.70;84.40;;;5.66;67.60;98458.69;4992762;28;20505;-76
2022/03/15 00:05:08;;;;;;;8.45;3.03;;;6.70;84.20;;;5.76;67.37;98459.19;4992675;28;20419;-75
2022/03/15 00:07:34;;;;;;;5.65;2.95;;;6.80;83.90;;;5.70;67.20;98444.19;4992283;28;20428;-75
2022/03/15 00:10:00;;;;;;;7.00;2.77;;;6.80;83.70;;;5.66;67.47;98437.69;4992428;28;20422;-76
2022/03/15 00:12:29;;;;;;;4.40;2.40;;;6.80;83.70;;;5.65;67.28;98443.94;4992252;28;20511;-76
2022/03/15 00:14:55;;;;;;;10.45;3.10;;;6.80;83.60;;;5.74;67.50;98446.22;4992445;28;20915;-75
2022/03/15 00:17:21;;;;;;;8.25;3.88;;;6.80;83.70;;;5.72;67.89;98444.78;4991981;28;20417;-76
2022/03/15 00:19:48;;;;;;;8.43;3.45;;;6.70;83.90;;;5.67;67.66;98449.81;5016500;23;20433;-82
2022/03/15 00:22:14;;;;;;;6.68;3.00;;;6.70;84.20;;;5.64;67.75;98452.84;5005688;28;20409;-83
2022/03/15 00:24:42;;;;;;;8.18;2.97;;;6.70;84.30;;;5.56;67.79;98442.50;5012258;28;20466;-82
2022/03/15 00:27:10;;;;;;;4.78;2.88;;;6.70;84.00;;;5.53;67.84;98443.69;5011833;28;20432;-82
2022/03/15 00:29:39;;;;;;;5.18;2.90;;;6.70;84.20;;;5.54;67.56;98444.50;5011507;28;20413;-83
2022/03/15 00:32:07;;;;;;;5.28;2.80;;;6.70;84.20;;;5.54;67.63;98449.75;5011888;28;20512;-82
2022/03/15 00:34:33;;;;;;;6.70;3.13;;;6.70;83.90;;;5.54;67.75;98449.75;5016951;28;20417;-82
2022/03/15 00:36:59;;;;;;;6.03;3.05;;;6.70;83.90;;;5.50;67.76;98446.69;5033414;28;20420;-82
2022/03/15 00:39:25;;;;;;;7.30;3.17;;;6.60;83.90;;;5.47;67.58;98443.66;5008714;28;20419;-82
2022/03/15 00:41:51;;;;;;;7.15;3.15;;;6.60;83.90;;;5.53;67.89;98445.50;4992010;28;20784;-82
2022/03/15 00:44:18;;;;;;;8.50;3.08;;;6.60;84.20;;;5.43;67.75;98438.75;4992307;28;20469;-83
2022/03/15 00:46:45;;;;;;;7.40;3.10;;;6.60;84.20;;;5.40;67.93;98433.91;5004784;28;20905;-83
2022/03/15 00:49:11;;;;;;;7.10;3.58;;;6.50;85.10;;;5.40;67.96;98428.66;4994989;28;20422;-83
2022/03/15 00:51:37;;;;;;;5.05;2.70;;;6.60;84.50;;;5.36;68.12;98426.59;4994967;28;20419;-83
2022/03/15 00:54:03;;;;;;;6.53;2.90;;;6.50;84.50;;;5.40;68.20;98428.66;5003179;28;20418;-83
2022/03/15 00:56:29;;;;;;;7.23;3.10;;;6.50;84.70;;;5.37;67.92;98422.97;4992045;28;20414;-83
2022/03/15 00:58:55;;;;;;;9.38;3.50;;;6.50;84.40;;;5.41;68.15;98425.00;5004524;28;20487;-83
2022/03/15 01:01:21;;;;;;;7.22;3.50;;;6.60;84.60;;;5.45;68.13;98425.44;4994372;28;20415;-82
2022/03/15 01:03:48;;;;;;;6.55;3.10;;;6.50;84.60;;;5.44;68.22;98416.75;5011416;28;20429;-81
2022/03/15 01:06:14;;;;;;;8.43;3.20;;;6.50;84.80;;;5.42;68.27;98420.56;5010471;28;20926;-83
2022/03/15 01:08:40;;;;;;;9.15;3.78;;;6.50;84.90;;;5.43;68.40;98407.25;5000796;28;20421;-82
2022/03/15 01:11:06;;;;;;;5.82;3.28;;;6.50;85.00;;;5.38;68.43;98401.78;5018253;28;20429;-80
2022/03/15 01:13:32;;;;;;;7.88;3.53;;;6.50;85.20;;;5.34;68.43;98397.09;5007321;28;20405;-82
2022/03/15 01:15:58;;;;;;;4.80;3.00;;;6.50;85.20;;;5.29;68.63;98407.38;5011274;28;20558;-82
2022/03/15 01:18:24;;;;;;;6.72;3.05;;;6.40;85.30;;;5.29;68.68;98404.75;5017108;28;20440;-81
2022/03/15 01:20:51;;;;;;;11.97;3.77;;;6.40;85.40;;;5.39;68.73;98407.84;5006906;28;20501;-82
2022/03/15 01:23:18;;;;;;;6.38;2.97;;;6.50;85.40;;;5.31;68.72;98406.19;4997090;28;20472;-82
2022/03/15 01:25:44;;;;;;;6.25;3.08;;;6.50;85.30;;;5.31;68.76;98400.13;4996739;28;20764;-83
2022/03/15 01:28:10;;;;;;;7.32;3.08;;;6.40;85.40;;;5.30;68.89;98399.31;4991481;28;20421;-82
2022/03/15 01:30:37;;;;;;;7.03;3.40;;;6.40;85.50;;;5.34;69.06;98390.03;4991261;28;20476;-82
2022/03/15 01:33:03;;;;;;;6.83;2.77;;;6.40;85.70;;;5.22;68.89;98385.50;4991540;28;21134;-82
2022/03/15 01:35:29;;;;;;;6.72;3.47;;;6.30;85.50;;;5.27;69.05;98388.38;4991304;28;20954;-82
2022/03/15 01:37:56;;;;;;;6.63;3.38;;;6.40;85.90;;;5.27;69.14;98389.19;4991452;28;20453;-82
2022/03/15 01:40:23;;;;;;;9.63;3.20;;;6.30;86.80;;;5.20;69.28;98392.75;5000806;28;20482;-82
2022/03/15 01:42:49;;;;;;;8.50;3.40;;;6.30;86.20;;;5.20;69.63;98374.41;5010824;28;20445;-83
2022/03/15 01:45:14;;;;;;;9.00;3.38;;;6.30;86.30;;;5.19;69.41;98370.97;5010315;28;20508;-83
2022/03/15 01:47:42;;;;;;;5.67;2.80;;;6.30;86.30;;;5.14;69.43;98359.41;4995262;28;20418;-82
2022/03/15 01:50:09;;;;;;;6.13;2.97;;;6.30;86.40;;;5.13;69.56;98363.84;4999204;28;20512;-82
2022/03/15 01:52:35;;;;;;;11.05;3.45;;;6.30;86.50;;;5.17;69.56;98364.31;5010605;28;20503;-82
2022/03/15 01:55:05;;;;;;;5.80;2.95;;;6.30;87.20;;;5.15;69.65;98367.09;5010780;28;20421;-83
2022/03/15 01:57:31;;;;;;;6.85;3.30;;;6.30;86.50;;;5.13;69.49;98371.72;4999957;28;20414;-82
2022/03/15 01:59:57;;;;;;;4.95;2.80;;;6.30;86.50;;;5.16;69.61;98360.84;4996142;28;20938;-83
2022/03/15 02:02:23;;;;;;;6.28;2.92;;;6.30;86.50;;;5.19;69.60;98357.84;4990963;28;20469;-83
2022/03/15 02:04:49;;;;;;;9.18;2.80;;;6.40;86.40;;;5.19;69.58;98364.94;4991106;28;20473;-83
2022/03/15 02:07:15;;;;;;;6.93;2.90;;;6.30;86.20;;;5.21;69.43;98370.78;4991318;28;20899;-83
2022/03/15 02:09:41;;;;;;;5.18;2.90;;;6.40;86.30;;;5.18;69.49;98364.13;5002294;28;21214;-83
2022/03/15 02:12:10;;;;;;;9.93;2.95;;;6.30;86.30;;;5.16;69.35;98363.47;4992270;28;20429;-83
2022/03/15 02:14:37;;;;;;;7.30;2.88;;;6.30;86.30;;;5.12;69.44;98370.09;4991326;28;20445;-83
2022/03/15 02:17:04;;;;;;;6.63;3.30;;;6.30;86.40;;;5.24;69.49;98370.41;4991382;28;20422;-82
2022/03/15 02:19:30;;;;;;;10.45;3.28;;;6.30;86.60;;;5.23;69.66;98376.66;4995084;28;20468;-83
2022/03/15 02:21:57;;;;;;;6.18;2.85;;;6.30;86.60;;;5.10;69.75;98361.63;5011260;28;20407;-84
2022/03/15 02:24:23;;;;;;;5.22;2.90;;;6.20;86.60;;;5.07;69.67;98362.00;4999437;28;20464;-84
2022/03/15 02:26:51;;;;;;;8.23;2.70;;;6.20;86.90;;;5.12;69.71;98364.03;4995672;28;20446;-83
2022/03/15 02:29:17;;;;;;;8.38;3.13;;;6.20;87.00;;;5.19;69.72;98360.47;4997337;28;20414;-83
2022/03/15 02:31:43;;;;;;;5.35;2.70;;;6.20;87.00;;;5.11;69.70;98355.38;5012779;28;20418;-83
2022/03/15 02:34:10;;;;;;;4.35;2.70;;;6.20;86.90;;;5.11;69.84;98352.75;4996551;28;20517;-83
2022/03/15 02:36:36;;;;;;;4.97;2.60;;;6.20;86.90;;;5.13;69.89;98348.13;4994745;28;20414;-82
2022/03/15 02:39:03;;;;;;;5.40;2.58;;;6.30;87.00;;;5.14;69.88;98351.53;5000591;28;20411;-83
2022/03/15 02:41:29;;;;;;;4.97;2.80;;;6.30;86.80;;;5.14;69.65;98349.75;4992611;28;20851;-83
2022/03/15 02:43:58;;;;;;;6.88;2.90;;;6.30;86.70;;;5.25;69.55;98351.84;4995008;28;20418;-82
2022/03/15 02:46:29;;;;;;;6.05;2.83;;;6.30;86.70;;;5.26;69.48;98350.03;4994207;28;20449;-83
2022/03/15 02:48:55;;;;;;;7.30;2.95;;;6.30;86.50;;;5.15;69.48;98340.88;4997983;28;20770;-82
2022/03/15 02:51:21;;;;;;;4.70;2.60;;;6.30;86.50;;;5.11;69.71;98339.63;4993744;28;20460;-83
2022/03/15 02:53:47;;;;;;;7.35;2.97;;;6.20;87.40;;;5.16;69.84;98334.63;5002805;28;20413;-83
2022/03/15 02:56:15;;;;;;;8.05;3.30;;;6.30;87.00;;;5.16;70.03;98341.69;5001840;28;20441;-83
2022/03/15 02:58:41;;;;;;;4.93;2.67;;;6.20;87.10;;;5.04;70.05;98336.94;4997116;28;20495;-82
2022/03/15 03:01:08;;;;;;;7.22;2.85;;;6.20;87.00;;;5.07;70.11;98341.81;4994449;28;20411;-82
2022/03/15 03:03:34;;;;;;;7.07;2.60;;;6.20;87.30;;;5.07;69.92;98333.13;5004563;28;20528;-82
2022/03/15 03:06:00;;;;;;;3.58;2.55;;;6.20;87.20;;;5.05;70.12;98333.31;5014937;28;20417;-82
2022/03/15 03:08:27;;;;;;;7.80;3.33;;;6.20;87.10;;;5.15;70.22;98337.44;4993415;28;20426;-83
2022/03/15 03:10:54;;;;;;;6.63;3.15;;;6.20;87.30;;;5.09;70.02;98339.00;4995742;28;20501;-83
2022/03/15 03:13:26;;;;;;;7.82;3.20;;;6.20;87.20;;;5.10;70.20;98342.44;4993938;28;20805;-82
2022/03/15 03:15:54;;;;;;;4.28;2.50;;;6.20;87.40;;;5.01;70.22;98337.34;5006502;28;20419;-83
2022/03/15 03:18:20;;;;;;;6.05;2.92;;;6.20;87.50;;;5.03;70.35;98331.91;5012748;28;20413;-81
2022/03/15 03:20:46;;;;;;;7.32;2.75;;;6.20;87.50;;;5.02;70.30;98330.28;4993349;28;20435;-82
2022/03/15 03:23:13;;;;;;;8.05;2.92;;;6.20;87.50;;;5.12;70.49;98332.56;4993804;28;20417;-82
2022/03/15 03:25:39;;;;;;;6.37;2.47;;;6.20;87.70;;;5.03;70.21;98327.47;4993592;28;20465;-83
2022/03/15 03:28:05;;;;;;;4.70;2.63;;;6.20;87.40;;;5.02;70.30;98325.03;4993742;28;20410;-83
2022/03/15 03:30:34;;;;;;;4.72;2.50;;;6.20;87.60;;;5.02;70.48;98333.72;5008479;28;20409;-83
2022/03/15 03:33:00;;;;;;;7.25;2.90;;;6.20;87.60;;;5.07;70.13;98330.53;4991466;28;20412;-82
2022/03/15 03:35:27;;;;;;;5.67;2.80;;;6.20;87.60;;;5.10;70.41;98321.47;4989993;28;20501;-82
2022/03/15 03:37:53;;;;;;;4.20;2.53;;;6.20;87.60;;;5.03;70.20;98319.63;5001830;28;20412;-83
2022/03/15 03:40:19;;;;;;;6.30;3.00;;;6.20;87.40;;;5.09;70.48;98315.41;4996707;28;20419;-82
2022/03/15 03:42:45;;;;;;;7.25;2.63;;;6.20;87.70;;;5.10;70.38;98305.72;5007851;28;20419;-83
2022/03/15 03:45:10;;;;;;;9.50;3.00;;;6.20;87.60;;;5.11;70.37;98316.03;5010598;28;20898;-83
2022/03/15 03:47:38;;;;;;;6.80;2.70;;;6.20;87.70;;;5.03;70.14;98306.50;4993676;28;20423;-82
2022/03/15 03:50:08;;;;;;;7.80;2.70;;;6.10;87.50;;;5.03;70.53;98309.13;4998674;28;20462;-82
2022/03/15 03:52:34;;;;;;;8.07;3.10;;;6.20;87.90;;;5.10;70.36;98310.97;4994567;28;20948;-82
2022/03/15 03:55:00;;;;;;;4.68;2.55;;;6.20;87.70;;;5.04;70.11;98310.72;4993640;28;20429;-82
2022/03/15 03:57:26;;;;;;;6.95;2.40;;;6.20;87.60;;;5.05;70.27;98303.66;4993627;28;20414;-82
2022/03/15 03:59:52;;;;;;;6.95;2.53;;;6.20;87.70;;;5.03;70.41;98305.69;5007290;28;20415;-82
2022/03/15 04:02:18;;;;;;;5.72;2.75;;;6.20;87.60;;;5.07;70.41;98306.91;5008870;28;20437;-82
2022/03/15 04:04:46;;;;;;;7.15;2.83;;;6.20;87.70;;;5.00;70.23;98306.06;4993378;28;20430;-82
2022/03/15 04:07:12;;;;;;;8.63;2.88;;;6.10;87.60;;;4.95;70.54;98300.59;4993401;28;20414;-83
2022/03/15 04:09:39;;;;;;;6.65;2.88;;;6.10;87.80;;;4.93;70.66;98313.06;5009956;28;20467;-81
2022/03/15 04:12:06;;;;;;;5.25;2.63;;;6.10;87.90;;;4.89;70.48;98310.00;5037307;28;20425;-82
2022/03/15 04:14:34;;;;;;;7.82;2.97;;;6.00;87.90;;;4.96;70.71;98305.63;5018322;28;20409;-82
2022/03/15 04:17:01;;;;;;;7.05;3.35;;;6.10;87.90;;;4.96;70.56;98310.84;5032341;28;20488;-81
2022/03/15 04:19:27;;;;;;;7.30;3.00;;;6.00;87.80;;;4.88;70.50;98302.34;5037077;28;20408;-81
2022/03/15 04:21:54;;;;;;;6.72;3.10;;;6.00;87.80;;;4.86;70.71;98301.72;4999459;28;20427;-82
2022/03/15 04:24:20;;;;;;;7.45;2.95;;;6.00;88.00;;;4.81;70.69;98299.66;4997768;28;20418;-82
2022/03/15 04:26:47;;;;;;;5.07;2.80;;;6.00;88.20;;;4.76;70.79;98294.19;5004867;28;20893;-83
2022/03/15 04:29:13;;;;;;;3.53;2.40;;;5.90;88.10;;;4.74;70.93;98304.06;4992718;28;20411;-82
2022/03/15 04:31:39;;;;;;;10.75;3.08;;;5.90;88.30;;;4.83;70.96;98302.09;4991991;28;20530;-82
2022/03/15 04:34:05;;;;;;;6.07;2.60;;;5.90;88.30;;;4.72;70.62;98300.84;4994787;28;20429;-83
2022/03/15 04:36:35;;;;;;;7.57;3.28;;;5.90;88.20;;;4.74;70.84;98290.13;4992216;28;20419;-82
2022/03/15 04:39:02;;;;;;;8.55;2.85;;;5.90;88.40;;;4.76;71.08;98291.56;4992251;28;20414;-83
2022/03/15 04:41:28;;;;;;;5.75;2.65;;;5.90;88.50;;;4.69;71.00;98293.34;4998901;28;20408;-82
2022/03/15 04:43:54;;;;;;;5.90;3.00;;;5.80;88.30;;;4.75;70.92;98289.13;5011564;28;20470;-82
2022/03/15 04:46:20;;;;;;;6.10;2.60;;;5.90;88.60;;;4.71;70.87;98285.28;4997596;28;20418;-83
2022/03/15 04:48:46;;;;;;;7.70;3.10;;;5.90;88.50;;;4.76;70.96;98283.69;4992306;28;20454;-82
2022/03/15 04:51:13;;;;;;;5.55;2.83;;;5.90;88.50;;;4.79;70.73;98290.38;4999648;28;20409;-82
2022/03/15 04:53:39;;;;;;;6.25;2.85;;;5.90;88.40;;;4.76;71.01;98286.31;5011286;28;20997;-83
2022/03/15 04:56:06;;;;;;;6.97;2.70;;;5.90;88.50;;;4.72;71.10;98277.22;5010412;28;20500;-83
2022/03/15 04:58:32;;;;;;;5.93;3.17;;;5.90;88.60;;;4.78;71.00;98286.13;5010029;28;20500;-82
2022/03/15 05:00:58;;;;;;;7.05;2.70;;;5.90;88.50;;;4.72;70.79;98281.66;4999479;28;20414;-83
2022/03/15 05:03:24;;;;;;;4.43;2.70;;;5.90;88.50;;;4.69;70.98;98288.09;4990737;28;20484;-82
2022/03/15 05:05:50;;;;;;;8.35;3.30;;;5.80;88.50;;;4.74;71.12;98285.69;4991957;28;20410;-75
2022/03/15 05:08:16;;;;;;;8.93;3.45;;;5.80;88.60;;;4.76;71.23;98283.69;4990685;28;20784;-77
2022/03/15 05:13:28;;;;;;;8.93;3.30;;;5.80;88.70;;;4.73;71.17;98283.28;4992099;28;20831;-78
2022/03/15 05:15:55;;;;;;;9.00;2.90;;;5.80;89.40;;;4.70;71.06;98276.59;4994507;28;20905;-77
2022/03/15 05:18:21;;;;;;;8.05;3.17;;;5.80;88.70;;;4.68;71.08;98268.09;4994280;28;20409;-76
2022/03/15 05:20:47;;;;;;;8.23;3.33;;;5.80;88.80;;;4.71;71.04;98275.59;5004386;28;20444;-78
2022/03/15 05:23:13;;;;;;;9.13;3.22;;;5.80;88.70;;;4.70;71.23;98271.34;5001710;28;20466;-76
2022/03/15 05:25:39;;;;;;;8.00;3.03;;;5.80;88.70;;;4.70;71.01;98260.88;4995377;28;20966;-84
2022/03/15 05:28:11;;;;;;;5.50;2.70;;;5.80;88.70;;;4.66;71.20;98270.91;4990052;28;20415;-84
2022/03/15 05:30:39;;;;;;;5.93;3.13;;;5.80;88.70;;;4.69;71.05;98272.34;5001747;28;20413;-85
2022/03/15 05:33:05;;;;;;;5.25;3.00;;;5.80;88.60;;;4.74;70.98;98263.91;4991977;28;20498;-85
2022/03/15 05:35:31;;;;;;;8.65;3.63;;;5.80;88.60;;;4.73;71.03;98267.56;5006461;28;20505;-84
2022/03/15 05:37:57;;;;;;;7.90;2.83;;;5.80;88.60;;;4.68;71.14;98278.59;4996614;28;20970;-84
2022/03/15 05:40:23;;;;;;;8.45;3.55;;;5.70;88.90;;;4.63;71.34;98278.38;4992744;28;21174;-85
2022/03/15 05:42:49;;;;;;;9.15;3.85;;;5.70;89.10;;;4.61;71.57;98278.56;4991154;28;20796;-86
2022/03/15 05:45:15;;;;;;;7.20;3.33;;;5.70;89.10;;;4.59;71.10;98279.75;4991697;28;20425;-74
2022/03/15 05:47:42;;;;;;;8.02;2.83;;;5.70;89.10;;;4.61;71.40;98280.38;4982669;28;20414;-77
2022/03/15 05:50:09;;;;;;;5.60;2.97;;;5.70;89.10;;;4.61;71.51;98273.31;4993149;28;20418;-78
2022/03/15 05:52:35;;;;;;;5.95;2.70;;;5.80;89.10;;;4.64;71.32;98274.75;4991437;28;21094;-76
2022/03/15 05:55:01;;;;;;;6.07;2.60;;;5.80;89.10;;;4.66;71.30;98270.13;4998463;28;20423;-83
2022/03/15 05:57:27;;;;;;;5.05;2.85;;;5.80;89.00;;;4.72;71.23;98265.94;4995187;28;20424;-82
2022/03/15 05:59:53;;;;;;;4.37;2.50;;;5.80;89.00;;;4.75;71.31;98262.91;4993639;28;20922;-83
2022/03/15 06:02:19;;;;;;;5.70;2.67;;;5.90;88.90;;;4.79;71.03;98261.53;4990860;28;20422;-84
2022/03/15 06:04:47;;;;;;;5.30;2.72;;;5.90;88.70;;;4.81;71.21;98260.31;4990697;28;20554;-82
2022/03/15 06:07:13;;;;;;;5.13;2.70;;;5.90;88.60;;;4.84;71.11;98262.56;4991124;28;20967;-83
2022/03/15 06:09:39;;;;;;;5.78;2.97;;;6.00;88.60;;;4.91;70.81;98252.91;4996251;28;20423;-82
2022/03/15 06:12:07;;;;;;;11.57;3.25;;;6.00;88.50;;;4.95;71.05;98259.41;4995526;28;20414;-83
2022/03/15 06:14:33;;;;;;;10.95;3.40;;;6.00;88.50;;;4.99;71.09;98259.81;5007611;28;20789;-83
2022/03/15 06:16:59;;;;;;;10.60;3.45;;;6.00;88.50;;;4.99;70.85;98257.19;5014029;28;20436;-84
2022/03/15 06:19:25;;;;;;;9.60;2.75;;;6.10;88.60;;;4.99;70.97;98254.56;5025473;23;20949;-77
2022/03/15 06:21:53;;;;;;;13.10;3.40;;;6.10;88.70;;;5.02;71.04;98264.69;5000197;28;20428;-78
2022/03/15 06:24:19;;;;;;;4.70;2.72;;;6.10;88.70;;;5.04;71.03;98278.41;5007288;28;21154;-88
2022/03/15 06:26:46;;;;;;;8.27;3.25;;;6.10;88.70;;;5.10;71.13;98266.34;5006506;28;20418;-75
2022/03/15 06:29:12;;;;;;;9.40;4.07;;;6.10;88.80;;;5.12;71.09;98267.75;5003713;28;20410;-81
2022/03/15 06:31:38;;;;;;;3.50;2.63;;;6.20;88.80;;;5.18;70.88;98268.81;4983875;28;20413;-82
2022/03/15 06:34:04;;;;;;;5.60;3.08;;;6.20;88.70;;;5.25;70.89;98264.41;4985326;28;20653;-77
2022/03/15 06:36:30;;;;;;;6.40;3.13;;;6.30;88.50;;;5.31;70.72;98264.44;4990654;28;20469;-77
2022/03/15 06:38:58;;;;;;;5.10;2.72;;;6.40;88.40;;;5.40;70.53;98265.06;4993302;28;20464;-78
2022/03/15 06:41:24;;;;;;;6.13;2.80;;;6.40;88.10;;;5.48;70.27;98269.34;4994005;28;20468;-74
2022/03/15 06:43:50;;;;;;;10.43;3.70;;;6.50;88.00;;;5.53;70.49;98267.75;5012102;28;20405;-76
2022/03/15 06:46:15;;;;;;;9.98;3.40;;;6.50;88.00;;;5.59;70.34;98261.69;5013719;28;20740;-74
2022/03/15 06:48:41;;;;;;;7.05;3.00;;;6.60;87.90;;;5.68;70.19;98262.31;5013816;28;20493;-74
2022/03/15 06:51:08;;;;;;;10.00;3.50;;;6.70;87.90;;;5.78;69.84;98257.50;5013064;28;20407;-74
2022/03/15 06:53:34;;;;;;;5.95;3.10;;;6.80;87.40;;;5.90;69.59;98253.31;5007577;28;20408;-76
2022/03/15 06:56:01;;;;;;;5.72;3.22;;;6.90;87.20;;;6.03;69.28;98245.44;4993473;28;20442;-78
2022/03/15 06:58:27;;;;;;;5.97;2.70;;;7.00;87.00;;;6.17;68.99;98248.88;4993887;28;20441;-76
2022/03/15 07:00:55;;;;;;;6.57;2.90;;;7.20;86.50;;;6.28;68.45;98239.59;4992908;28;20399;-76
2022/03/15 07:03:20;;;;;;;4.97;2.60;;;7.30;86.20;;;6.40;68.43;98240.59;4993739;28;20414;-75
2022/03/15 07:05:46;;;;;;;12.40;4.65;;;7.40;85.90;;;6.46;67.08;98250.31;4993042;28;20418;-75
2022/03/15 07:08:12;;;;;;;9.40;3.80;;;7.40;83.80;;;6.55;66.89;98263.03;4993579;28;20764;-77
2022/03/15 07:10:38;;;;;;;8.35;3.75;;;7.60;84.10;;;6.61;65.83;98256.19;4992952;28;20469;-75
2022/03/15 07:13:06;;;;;;;7.70;3.43;;;7.60;82.40;;;6.68;65.82;98258.78;4993518;28;20414;-74
2022/03/15 07:15:32;;;;;;;6.25;3.03;;;7.60;82.40;;;6.75;65.14;98260.41;4992881;28;20546;-77
2022/03/15 07:17:58;;;;;;;9.23;3.45;;;7.70;81.90;;;6.83;64.71;98254.13;5001152;28;20416;-76
2022/03/15 07:20:26;;;;;;;9.25;3.15;;;7.80;81.20;;;6.91;64.50;98251.25;4995466;28;20422;-76
2022/03/15 07:22:52;;;;;;;9.07;3.63;;;7.90;80.90;;;6.89;63.53;98248.84;4993424;28;20777;-76
2022/03/15 07:25:20;;;;;;;9.88;3.80;;;7.90;79.30;;;6.88;63.37;98249.84;4997394;28;20401;-76
2022/03/15 07:27:46;;;;;;;8.93;3.50;;;7.90;79.00;;;6.86;63.04;98235.25;4995091;28;20418;-76
2022/03/15 07:30:14;;;;;;;14.02;3.85;;;7.80;78.60;;;6.84;63.18;98238.09;4992499;28;20413;-73
2022/03/15 07:32:40;;;;;;;8.90;3.55;;;7.80;78.70;;;6.85;63.05;98236.28;4993338;28;20406;-75
2022/03/15 07:35:07;;;;;;;9.40;3.53;;;7.80;78.80;;;6.89;63.21;98245.38;4992953;28;20431;-75
2022/03/15 07:37:33;;;;;;;7.03;3.00;;;7.90;79.10;;;6.90;62.93;98236.47;4991526;28;20768;-77
2022/03/15 07:39:59;;;;;;;8.50;3.10;;;7.90;78.60;;;6.92;63.04;98239.69;4992976;28;20468;-77
2022/03/15 07:42:25;;;;;;;6.72;3.28;;;7.90;78.80;;;6.96;62.89;98228.56;4991334;28;20411;-74
2022/03/15 07:44:51;;;;;;;6.07;2.90;;;7.90;78.70;;;7.02;62.80;98231.38;4992694;28;20930;-75
2022/03/15 07:47:18;;;;;;;8.87;3.03;;;8.00;78.70;;;7.07;62.62;98227.09;4992942;28;20411;-79
2022/03/15 07:49:47;;;;;;;4.15;2.42;;;8.00;78.50;;;7.13;62.74;98228.94;4992952;28;20493;-79
2022/03/15 07:52:13;;;;;;;9.00;3.60;;;8.10;78.50;;;7.18;62.17;98228.28;4992080;28;20421;-79
2022/03/15 07:54:39;;;;;;;8.17;3.10;;;8.10;77.80;;;7.26;62.35;98220.16;4993048;28;20506;-77
2022/03/15 07:57:05;;;;;;;9.93;3.30;;;8.20;78.00;;;7.24;61.22;98222.19;4992516;28;20517;-77
2022/03/15 07:59:31;;;;;;;8.70;2.95;;;8.20;76.30;;;7.31;61.21;98228.22;4992162;28;20425;-76
2022/03/15 08:01:57;;;;;;;8.82;3.22;;;8.30;76.60;;;7.34;61.00;98227.81;4992446;28;20457;-75
2022/03/15 08:04:24;;;;;;;9.38;3.25;;;8.30;76.30;;;7.37;61.13;98217.66;4988530;28;20527;-76
2022/03/15 08:06:50;;;;;;;10.83;3.40;;;8.30;76.10;;;7.37;60.95;98220.28;4984858;28;20485;-76
2022/03/15 08:09:15;;;;;;;10.65;3.45;;;8.30;75.90;;;7.45;60.52;98213.16;4982571;28;20428;-76
2022/03/15 08:11:41;;;;;;;8.85;3.47;;;8.40;75.60;;;7.53;60.26;98219.00;4985238;28;20428;-75
2022/03/15 08:14:09;;;;;;;9.63;3.50;;;8.50;75.20;;;7.63;59.90;98218.56;5000497;28;20854;-75
2022/03/15 08:16:35;;;;;;;7.63;3.50;;;8.60;74.70;;;7.71;59.63;98213.84;4978907;28;20454;-75
2022/03/15 08:19:01;;;;;;;8.82;3.50;;;8.70;74.40;;;7.79;58.72;98223.31;4990385;28;20916;-75
2022/03/15 08:21:29;;;;;;;9.95;3.55;;;8.70;73.10;;;7.88;59.38;98218.59;4988643;28;20418;-76
2022/03/15 08:23:55;;;;;;;10.05;3.10;;;8.80;73.50;;;8.01;58.77;98221.16;4990725;28;20418;-77
2022/03/15 08:26:21;;;;;;;5.85;3.00;;;8.90;73.40;;;8.12;58.53;98213.34;4991157;28;20457;-76
2022/03/15 08:28:48;;;;;;;6.35;2.67;;;9.10;72.80;;;8.25;57.77;98211.63;4991015;28;20406;-76
2022/03/15 08:31:14;;;;;;;8.95;3.33;;;9.20;72.10;;;8.41;57.70;98200.56;4987614;28;20489;-76
2022/03/15 08:33:44;;;;;;;8.77;3.03;;;9.30;72.00;;;8.47;56.58;98204.97;4986460;28;20418;-75
2022/03/15 08:36:10;;;;;;;6.85;2.60;;;9.40;70.20;;;8.66;56.97;98208.44;4989553;28;20489;-77
2022/03/15 08:38:37;;;;;;;5.82;2.50;;;9.50;71.10;;;8.81;56.71;98209.69;4986809;28;20830;-77
2022/03/15 08:41:04;;;;;;;5.10;2.28;;;9.70;70.80;;;8.96;56.63;98206.69;5003144;28;20430;-77
2022/03/15 08:43:30;;;;;;;6.65;2.53;;;9.80;70.60;;;9.11;56.46;98209.78;4988327;28;20436;-77
2022/03/15 08:45:56;;;;;;;5.55;2.40;;;10.00;70.30;;;9.19;55.70;98201.53;4991379;28;20410;-76
2022/03/15 08:48:22;;;;;;;6.32;2.85;;;10.10;69.30;;;9.25;54.98;98207.78;4990966;28;20438;-76
2022/03/15 08:50:48;;;;;;;6.90;2.85;;;10.10;68.50;;;9.21;54.31;98203.97;4990856;28;20414;-77
2022/03/15 08:53:14;;;;;;;8.65;2.60;;;10.10;67.10;;;9.29;54.48;98201.03;4991769;28;20407;-76
2022/03/15 08:55:42;;;;;;;5.65;2.67;;;10.20;67.70;;;9.26;54.25;98202.28;4989489;28;20415;-77
2022/03/15 08:58:08;;;;;;;8.10;2.67;;;10.20;67.20;;;9.20;54.41;98199.72;4991439;28;20502;-75
2022/03/15 09:00:34;;;;;;;6.97;2.92;;;10.10;67.20;;;9.16;54.56;98202.00;4989522;28;20899;-75
2022/03/15 09:03:00;;;;;;;4.78;2.50;;;10.10;67.30;;;9.16;54.90;98201.19;5004656;28;20426;-74
2022/03/15 09:05:26;;;;;;;6.40;2.80;;;10.10;67.80;;;9.10;55.01;98200.22;5005631;28;20450;-74
2022/03/15 09:07:53;;;;;;;6.57;2.60;;;10.00;68.00;;;9.07;55.64;98208.63;4992832;28;20409;-74
2022/03/15 09:10:20;;;;;;;8.65;2.83;;;10.00;68.70;;;9.07;56.86;98213.91;4994557;28;20413;-76
2022/03/15 09:12:48;;;;;;;7.43;2.78;;;10.00;70.10;;;9.11;57.71;98203.69;5005773;28;20579;-74
2022/03/15 09:15:15;;;;;;;8.38;2.97;;;10.00;71.70;;;9.00;61.08;98199.97;4991827;28;20686;-75
2022/03/15 09:17:41;;;;;;;7.20;3.40;;;9.90;75.20;;;8.95;62.10;98209.56;4996380;28;20847;-73
2022/03/15 09:20:09;;;;;;;4.82;2.53;;;9.90;76.40;;;8.90;62.27;98197.81;4992029;28;20445;-76
2022/03/15 09:22:35;;;;;;;5.93;2.67;;;9.80;77.10;;;8.89;63.78;98195.41;4988278;28;20418;-77
2022/03/15 09:25:02;;;;;;;6.20;2.80;;;9.80;78.90;;;8.80;64.89;98191.44;4995591;28;20413;-74
2022/03/15 09:27:28;;;;;;;4.70;2.63;;;9.70;80.50;;;8.74;66.74;98189.69;4993291;28;20422;-73
2022/03/15 09:29:55;;;;;;;5.18;2.70;;;9.70;83.30;;;8.68;68.16;98186.09;4989102;28;20496;-73
2022/03/15 09:32:21;;;;;;;8.30;3.20;;;9.60;84.70;;;8.71;68.94;98185.66;4984550;28;20514;-75
2022/03/15 09:34:47;;;;;;;8.75;3.35;;;9.60;86.30;;;8.63;70.66;98169.31;4986884;28;20436;-76
2022/03/15 09:37:13;;;;;;;7.00;3.15;;;9.50;87.70;;;8.59;71.40;98179.47;4991396;28;20776;-76
2022/03/15 09:39:39;;;;;;;5.07;3.22;;;9.50;88.70;;;8.50;72.70;98171.03;4988112;28;20505;-75
2022/03/15 09:42:09;;;;;;;5.30;2.90;;;9.40;90.10;;;8.42;74.17;98152.06;4988831;28;20442;-74
2022/03/15 09:44:40;;;;;;;6.40;3.20;;;9.40;91.00;;;8.43;75.22;98153.66;4990875;28;20531;-74
2022/03/15 09:47:08;;;;;;;4.17;2.83;;;9.30;91.70;;;8.47;76.39;98152.22;4991632;28;20495;-75
2022/03/15 09:49:36;;;;;;;8.55;3.50;;;9.40;92.30;;;8.45;77.47;98149.78;4989700;28;20419;-76
2022/03/15 09:52:06;;;;;;;6.75;3.90;;;9.40;92.70;;;8.41;77.87;98147.81;4987015;28;20469;-73
2022/03/15 09:54:32;;;;;;;7.82;3.30;;;9.30;93.20;;;8.30;78.58;98136.09;4988754;28;20434;-73
2022/03/15 09:56:58;;;;;;;5.40;3.22;;;9.20;93.40;;;8.31;79.89;98134.31;4986620;28;20422;-74
2022/03/15 09:59:26;;;;;;;4.32;2.92;;;9.20;94.20;;;8.32;80.84;98122.72;4989334;28;20942;-76
2022/03/15 10:01:54;;;;;;;4.90;2.97;;;9.30;94.90;;;8.38;81.84;98122.66;4981915;28;20428;-73
2022/03/15 10:04:23;;;;;;;3.90;2.67;;;9.30;95.50;;;8.45;82.45;98120.75;4985215;28;20523;-73
2022/03/15 10:06:51;;;;;;;4.93;2.40;;;9.40;96.00;;;8.50;82.80;98118.25;4988162;28;20460;-75
2022/03/15 10:09:17;;;;;;;3.47;2.55;;;9.40;96.30;;;8.57;83.04;98118.19;4989774;28;20805;-76
2022/03/15 10:11:43;;;;;;;2.92;2.50;;;9.50;96.50;;;8.64;83.56;98107.59;4989953;28;20410;-74
2022/03/15 10:14:10;;;;;;;3.88;2.60;;;9.60;96.80;;;8.69;83.91;98102.44;4990115;28;20488;-75
2022/03/15 10:16:41;;;;;;;4.28;2.70;;;9.60;97.00;;;8.75;84.25;98099.72;4989075;28;20421;-74
2022/03/15 10:19:09;;;;;;;4.22;2.65;;;9.70;97.30;;;8.81;84.85;98088.25;4987987;28;20472;-76
2022/03/15 10:21:47;;;;;;;3.85;2.63;;;9.70;97.50;;;8.89;85.22;98084.50;4988835;28;20417;-76
2022/03/15 10:24:17;;;;;;;4.13;2.80;;;9.80;97.80;;;8.96;85.37;98084.44;4987356;28;20437;-75
2022/03/15 10:26:45;;;;;;;6.95;3.40;;;9.80;97.90;;;9.00;85.49;98077.69;4989448;28;20935;-75
2022/03/15 10:29:13;;;;;;;4.05;2.80;;;9.90;98.00;;;9.04;85.46;98074.34;4989788;28;20410;-79
2022/03/15 10:31:40;;;;;;;3.83;2.92;;;9.90;98.00;;;9.07;85.57;98068.63;4989096;28;20415;-78